Time;durP1;ratioP1;P1;durP2;ratioP2;P2;SDS_P1;SDS_P2;PMS_P1;PMS_P2;Temp;Humidity;BMP_temperature;BMP_pressure;BME280_temperature;BME280_humidity;BME280_pressure;Samples;Min_cycle;Max_cycle;Signal;HPM_P1;HPM_P2
2021/07/09 00:01:02;;;;;;;1.27;1.10;;;13.90;99.90;;;;;;5096245;28;20214;-79
2021/07/09 00:03:28;;;;;;;2.30;1.30;;;13.80;99.90;;;;;;5091162;28;20169;-78
2021/07/09 00:05:54;;;;;;;1.43;1.30;;;13.80;99.90;;;;;;5060780;28;20635;-79
2021/07/09 00:08:19;;;;;;;1.57;1.10;;;13.90;99.90;;;;;;5075267;28;20207;-78
2021/07/09 00:10:45;;;;;;;1.50;1.40;;;13.90;99.90;;;;;;5087144;28;20193;-79
2021/07/09 00:13:11;;;;;;;1.40;1.30;;;13.80;99.90;;;;;;5095472;28;20179;-78
2021/07/09 00:15:37;;;;;;;1.80;1.40;;;13.80;99.90;;;;;;5096040;28;20264;-78
2021/07/09 00:18:03;;;;;;;1.20;1.10;;;13.90;99.90;;;;;;5097729;28;20280;-79
2021/07/09 00:20:29;;;;;;;4.53;1.30;;;13.90;99.90;;;;;;5079343;28;20208;-78
2021/07/09 00:22:55;;;;;;;2.33;2.13;;;13.90;99.90;;;;;;5097146;28;20184;-79
2021/07/09 00:25:22;;;;;;;1.60;1.40;;;13.90;99.90;;;;;;5079419;28;20180;-79
2021/07/09 00:27:48;;;;;;;2.30;1.50;;;13.80;99.90;;;;;;5097640;28;20191;-79
2021/07/09 00:30:14;;;;;;;3.30;1.30;;;13.70;99.90;;;;;;5097087;28;20191;-78
2021/07/09 00:32:40;;;;;;;1.50;1.40;;;13.70;99.90;;;;;;5079621;28;20188;-79
2021/07/09 00:35:06;;;;;;;1.50;1.40;;;13.70;99.90;;;;;;5097217;28;20187;-79
2021/07/09 00:37:32;;;;;;;1.63;1.50;;;13.60;99.90;;;;;;5077882;28;20647;-78
2021/07/09 00:39:57;;;;;;;3.33;1.37;;;13.60;99.90;;;;;;5082805;22;20314;-73
2021/07/09 00:42:23;;;;;;;2.53;1.70;;;13.60;99.90;;;;;;5035308;28;20177;-74
2021/07/09 00:44:49;;;;;;;2.30;1.37;;;13.60;99.90;;;;;;5035236;28;20181;-74
2021/07/09 00:47:14;;;;;;;2.03;1.60;;;13.60;99.90;;;;;;5035135;28;20191;-74
2021/07/09 00:49:40;;;;;;;1.80;1.70;;;13.60;99.90;;;;;;5033859;28;20211;-74
2021/07/09 00:52:06;;;;;;;2.93;1.60;;;13.60;99.90;;;;;;5032424;28;20186;-75
2021/07/09 00:54:31;;;;;;;1.80;1.70;;;13.60;99.90;;;;;;5034366;28;20656;-75
2021/07/09 00:56:57;;;;;;;1.80;1.53;;;13.70;99.90;;;;;;5033817;28;20264;-74
2021/07/09 00:59:23;;;;;;;2.60;1.40;;;13.80;99.90;;;;;;5035014;28;20208;-74
2021/07/09 01:01:52;;;;;;;1.63;1.53;;;13.70;99.90;;;;;;5034871;28;20179;-74
2021/07/09 01:04:19;;;;;;;3.00;1.63;;;13.70;99.90;;;;;;5034921;28;20174;-74
2021/07/09 01:06:46;;;;;;;2.57;1.60;;;13.70;99.90;;;;;;5034783;28;20251;-75
2021/07/09 01:09:11;;;;;;;1.70;1.60;;;13.80;99.90;;;;;;5033458;28;20205;-74
2021/07/09 01:11:37;;;;;;;1.30;1.20;;;13.80;99.90;;;;;;5034121;28;20182;-75
2021/07/09 01:14:05;;;;;;;1.53;1.37;;;13.90;99.90;;;;;;5034769;28;20248;-74
2021/07/09 01:16:30;;;;;;;1.53;1.33;;;13.80;99.90;;;;;;5034627;28;20185;-74
2021/07/09 01:18:56;;;;;;;1.60;1.47;;;13.80;99.90;;;;;;5034428;28;20260;-75
2021/07/09 01:21:22;;;;;;;1.60;1.50;;;13.90;99.90;;;;;;5034572;28;20184;-74
2021/07/09 01:23:56;;;;;;;1.70;1.60;;;13.90;99.90;;;;;;5034423;28;20242;-74
2021/07/09 01:26:22;;;;;;;1.70;1.60;;;13.80;99.90;;;;;;5034575;28;20181;-74
2021/07/09 01:28:48;;;;;;;1.67;1.57;;;13.80;99.90;;;;;;5032981;28;20198;-75
2021/07/09 01:31:13;;;;;;;1.93;1.70;;;13.70;99.90;;;;;;5034446;28;20174;-74
2021/07/09 01:33:39;;;;;;;2.93;1.77;;;13.70;99.90;;;;;;5034263;28;20177;-74
2021/07/09 01:36:05;;;;;;;2.27;1.83;;;13.70;99.90;;;;;;5034324;28;20185;-74
2021/07/09 01:38:31;;;;;;;1.80;1.70;;;13.80;99.90;;;;;;5033916;28;20219;-75
2021/07/09 01:40:57;;;;;;;2.00;1.70;;;13.80;99.90;;;;;;5034360;28;20174;-74
2021/07/09 01:43:24;;;;;;;2.20;2.00;;;13.70;99.90;;;;;;5034418;28;20189;-74
2021/07/09 01:45:50;;;;;;;1.83;1.73;;;13.80;99.90;;;;;;5034012;28;20263;-74
2021/07/09 01:48:16;;;;;;;2.17;2.00;;;13.80;99.90;;;;;;5034080;28;20184;-74
2021/07/09 01:50:42;;;;;;;3.37;1.93;;;13.80;99.90;;;;;;5033168;28;20266;-74
2021/07/09 01:53:08;;;;;;;3.03;2.00;;;13.80;99.90;;;;;;5033836;28;20300;-74
2021/07/09 01:55:33;;;;;;;2.20;2.00;;;13.80;99.90;;;;;;5033888;28;20543;-74
2021/07/09 01:57:59;;;;;;;2.63;2.10;;;13.70;99.90;;;;;;5032670;28;20181;-75
2021/07/09 02:00:27;;;;;;;2.13;2.03;;;13.70;99.90;;;;;;5030891;28;20200;-74
2021/07/09 02:02:53;;;;;;;3.13;2.50;;;13.80;99.90;;;;;;5033842;28;20215;-74
2021/07/09 02:05:21;;;;;;;2.50;1.80;;;13.70;99.90;;;;;;5033541;28;20177;-74
2021/07/09 02:07:54;;;;;;;2.40;2.23;;;13.80;99.90;;;;;;5033789;28;20524;-74
2021/07/09 02:10:21;;;;;;;2.30;1.87;;;13.90;99.90;;;;;;5026841;28;20676;-75
2021/07/09 02:12:50;;;;;;;2.10;2.00;;;13.90;99.90;;;;;;5025205;28;20200;-75
2021/07/09 02:15:16;;;;;;;2.47;2.27;;;13.90;99.90;;;;;;5031556;28;20201;-74
2021/07/09 02:17:43;;;;;;;2.90;2.70;;;13.80;99.90;;;;;;5031514;28;20261;-75
2021/07/09 02:20:12;;;;;;;3.57;2.70;;;13.80;99.90;;;;;;5032097;28;20228;-74
2021/07/09 02:22:38;;;;;;;3.57;3.27;;;13.80;99.90;;;;;;5033926;28;20643;-74
2021/07/09 02:25:07;;;;;;;3.87;3.10;;;13.80;99.90;;;;;;5033260;28;20190;-74
2021/07/09 02:27:37;;;;;;;3.80;3.53;;;13.80;99.90;;;;;;5032520;28;20188;-74
2021/07/09 02:30:08;;;;;;;3.60;2.87;;;13.80;99.90;;;;;;5033305;28;20292;-74
2021/07/09 02:32:34;;;;;;;4.00;3.60;;;13.80;99.90;;;;;;5029373;28;20192;-74
2021/07/09 02:35:00;;;;;;;3.60;3.30;;;13.80;99.90;;;;;;5033260;28;20192;-75
2021/07/09 02:37:26;;;;;;;4.13;3.83;;;13.90;99.90;;;;;;5033537;28;20259;-74
2021/07/09 02:39:51;;;;;;;4.43;4.03;;;13.80;99.90;;;;;;5031575;28;20213;-74
2021/07/09 02:42:17;;;;;;;3.97;3.67;;;13.80;99.90;;;;;;5032397;28;20184;-75
2021/07/09 02:44:43;;;;;;;3.77;3.47;;;13.90;99.90;;;;;;5033135;28;20187;-75
2021/07/09 02:47:09;;;;;;;4.63;4.10;;;13.90;99.90;;;;;;5033105;28;20185;-74
2021/07/09 02:49:34;;;;;;;4.10;3.80;;;13.90;99.90;;;;;;5033139;28;20201;-74
2021/07/09 02:52:00;;;;;;;4.30;3.93;;;13.90;99.90;;;;;;5022453;28;20283;-75
2021/07/09 02:54:26;;;;;;;6.30;4.17;;;13.90;99.90;;;;;;5044546;28;20193;-74
2021/07/09 02:56:51;;;;;;;3.90;3.60;;;14.00;99.90;;;;;;5033282;28;20204;-74
2021/07/09 02:59:17;;;;;;;6.23;4.47;;;14.00;99.90;;;;;;5032924;28;20698;-73
2021/07/09 03:01:43;;;;;;;5.37;4.30;;;14.00;99.90;;;;;;5033067;28;20666;-74
2021/07/09 03:04:10;;;;;;;4.43;4.13;;;14.00;99.90;;;;;;5033290;28;20582;-74
2021/07/09 03:06:36;;;;;;;4.10;3.80;;;14.00;99.90;;;;;;5031610;28;20181;-74
2021/07/09 03:09:06;;;;;;;5.00;4.50;;;14.00;99.90;;;;;;5021406;28;20199;-74
2021/07/09 03:11:32;;;;;;;7.77;4.70;;;14.00;99.90;;;;;;5029903;28;20653;-74
2021/07/09 03:13:58;;;;;;;5.27;4.53;;;14.00;99.90;;;;;;5032908;28;20703;-74
2021/07/09 03:16:24;;;;;;;5.23;4.80;;;14.00;99.90;;;;;;5032056;28;20181;-75
2021/07/09 03:18:49;;;;;;;6.57;5.23;;;14.00;99.90;;;;;;5031277;28;20252;-74
2021/07/09 03:21:15;;;;;;;5.57;5.10;;;14.00;99.90;;;;;;5029999;28;20231;-75
2021/07/09 03:23:40;;;;;;;6.27;5.77;;;14.10;99.90;;;;;;5031282;28;20540;-75
2021/07/09 03:26:06;;;;;;;5.97;5.17;;;14.00;99.90;;;;;;5031880;28;20215;-74
2021/07/09 03:28:32;;;;;;;6.10;5.50;;;14.10;99.90;;;;;;5032711;28;20209;-74
2021/07/09 03:30:57;;;;;;;6.17;5.67;;;14.10;99.90;;;;;;5032186;28;20272;-75
2021/07/09 03:33:23;;;;;;;6.10;5.57;;;14.10;99.90;;;;;;5030687;28;20170;-75
2021/07/09 03:35:49;;;;;;;6.43;5.83;;;14.20;99.90;;;;;;5033548;28;20177;-75
2021/07/09 03:38:15;;;;;;;5.85;5.25;;;14.10;99.90;;;;;;5034186;28;20191;-74
2021/07/09 03:40:40;;;;;;;6.27;5.67;;;14.20;99.90;;;;;;5033297;28;20278;-75
2021/07/09 03:43:06;;;;;;;6.50;5.90;;;14.10;99.90;;;;;;5033688;28;20182;-74
2021/07/09 03:45:32;;;;;;;6.03;5.53;;;14.10;99.90;;;;;;5035060;28;20192;-74
2021/07/09 03:47:58;;;;;;;6.47;5.90;;;14.20;99.90;;;;;;5035227;28;20189;-74
2021/07/09 03:50:24;;;;;;;9.87;5.60;;;14.20;99.90;;;;;;5034996;28;20178;-75
2021/07/09 03:52:50;;;;;;;6.17;5.73;;;14.10;99.90;;;;;;5036323;28;20163;-75
2021/07/09 03:55:15;;;;;;;6.30;5.70;;;14.20;99.90;;;;;;5035191;28;20180;-74
2021/07/09 03:57:41;;;;;;;6.57;5.90;;;14.20;99.90;;;;;;5036107;28;20264;-74
2021/07/09 04:00:09;;;;;;;5.67;5.03;;;14.20;99.90;;;;;;5034512;28;20221;-75
2021/07/09 04:02:35;;;;;;;6.30;5.80;;;14.30;99.90;;;;;;5044982;28;20175;-74
2021/07/09 04:05:01;;;;;;;8.33;6.17;;;14.30;99.90;;;;;;5034375;28;20186;-73
2021/07/09 04:07:27;;;;;;;6.37;5.80;;;14.20;99.90;;;;;;5032175;28;20197;-74
2021/07/09 04:09:52;;;;;;;6.40;5.90;;;14.20;99.90;;;;;;5032875;28;20247;-75
2021/07/09 04:12:18;;;;;;;6.33;5.83;;;14.20;99.90;;;;;;5033960;28;20192;-75
2021/07/09 04:14:44;;;;;;;6.40;5.90;;;14.20;99.90;;;;;;5035064;28;20210;-75
2021/07/09 04:17:09;;;;;;;6.10;5.60;;;14.20;99.90;;;;;;5034864;28;20236;-75
2021/07/09 04:19:35;;;;;;;6.27;5.70;;;14.20;99.90;;;;;;5035687;28;20206;-74
2021/07/09 04:22:00;;;;;;;6.10;5.50;;;14.30;99.90;;;;;;5035353;28;20184;-74
2021/07/09 04:24:26;;;;;;;6.00;5.40;;;14.30;99.90;;;;;;5034175;28;20174;-74
2021/07/09 04:26:52;;;;;;;6.97;6.07;;;14.30;99.90;;;;;;5034289;28;20177;-74
2021/07/09 04:29:18;;;;;;;10.60;5.90;;;14.30;99.90;;;;;;5034371;28;20572;-73
2021/07/09 04:31:43;;;;;;;11.40;6.30;;;14.30;99.90;;;;;;5035412;28;20178;-74
2021/07/09 04:34:09;;;;;;;6.27;5.77;;;14.20;99.90;;;;;;5035233;28;20284;-74
2021/07/09 04:36:35;;;;;;;7.07;6.30;;;14.20;99.90;;;;;;5035930;28;20583;-76
2021/07/09 04:39:00;;;;;;;7.07;6.33;;;14.20;99.90;;;;;;5033733;28;20592;-75
2021/07/09 04:41:26;;;;;;;6.57;6.00;;;14.20;99.90;;;;;;5035138;28;20526;-74
2021/07/09 04:43:51;;;;;;;6.80;6.10;;;14.20;99.90;;;;;;5035346;28;20687;-74
2021/07/09 04:46:17;;;;;;;6.73;6.10;;;14.20;99.90;;;;;;5034185;28;20183;-75
2021/07/09 04:48:44;;;;;;;7.10;6.50;;;14.20;99.90;;;;;;5033306;28;20750;-75
2021/07/09 04:51:10;;;;;;;8.40;6.80;;;14.20;99.90;;;;;;5035704;28;20641;-76
2021/07/09 04:53:35;;;;;;;7.20;6.60;;;14.20;99.90;;;;;;5034006;28;20199;-75
2021/07/09 04:56:01;;;;;;;7.40;6.70;;;14.20;99.90;;;;;;5034436;28;20669;-76
2021/07/09 04:58:27;;;;;;;6.90;6.40;;;14.20;99.90;;;;;;5033751;28;20259;-76
2021/07/09 05:00:52;;;;;;;7.67;6.93;;;14.20;99.90;;;;;;5032114;28;20226;-75
2021/07/09 05:03:18;;;;;;;8.20;7.50;;;14.20;99.90;;;;;;5031397;28;20301;-75
2021/07/09 05:05:44;;;;;;;8.93;7.60;;;14.20;99.90;;;;;;5032337;28;20202;-77
2021/07/09 05:08:10;;;;;;;7.07;6.37;;;14.20;99.90;;;;;;5032672;28;20272;-76
2021/07/09 05:10:35;;;;;;;7.57;6.97;;;14.20;99.90;;;;;;5032790;28;20184;-76
2021/07/09 05:13:07;;;;;;;7.30;6.70;;;14.20;99.90;;;;;;5032127;28;20201;-76
2021/07/09 05:15:34;;;;;;;8.03;7.27;;;14.20;99.90;;;;;;5033314;28;20185;-72
2021/07/09 05:18:00;;;;;;;8.13;7.27;;;14.30;99.90;;;;;;5033845;28;20265;-75
2021/07/09 05:20:26;;;;;;;8.63;7.83;;;14.30;99.90;;;;;;5034490;28;20208;-76
2021/07/09 05:22:52;;;;;;;8.20;7.50;;;14.30;99.90;;;;;;5033421;28;20189;-76
2021/07/09 05:25:18;;;;;;;8.37;7.53;;;14.30;99.90;;;;;;5029626;28;20244;-76
2021/07/09 05:27:44;;;;;;;11.07;7.93;;;14.30;99.90;;;;;;5032445;28;20261;-76
2021/07/09 05:30:10;;;;;;;8.33;7.63;;;14.30;99.90;;;;;;5032274;28;20225;-76
2021/07/09 05:32:38;;;;;;;8.30;7.63;;;14.30;99.90;;;;;;5008224;28;20272;-76
2021/07/09 05:35:06;;;;;;;10.40;8.40;;;14.30;99.90;;;;;;5032096;28;20181;-76
2021/07/09 05:37:32;;;;;;;8.67;7.93;;;14.40;99.90;;;;;;5032605;28;20597;-76
2021/07/09 05:39:58;;;;;;;9.03;8.13;;;14.30;99.90;;;;;;5033724;28;20214;-75
2021/07/09 05:42:24;;;;;;;8.97;8.30;;;14.40;99.90;;;;;;5034079;28;20532;-76
2021/07/09 05:44:50;;;;;;;10.27;7.70;;;14.40;99.90;;;;;;5031855;28;20181;-76
2021/07/09 05:47:16;;;;;;;12.60;8.63;;;14.40;99.90;;;;;;5032872;28;20189;-76
2021/07/09 05:49:42;;;;;;;9.00;8.10;;;14.40;99.90;;;;;;5032599;28;20202;-76
2021/07/09 05:52:09;;;;;;;9.07;8.23;;;14.40;99.90;;;;;;5026626;28;20202;-76
2021/07/09 05:54:34;;;;;;;9.47;8.27;;;14.50;99.90;;;;;;5027487;28;20192;-76
2021/07/09 05:57:00;;;;;;;9.30;8.47;;;14.50;99.90;;;;;;5030833;28;20213;-77
2021/07/09 05:59:26;;;;;;;8.40;7.70;;;14.50;99.90;;;;;;5024866;28;20203;-76
2021/07/09 06:01:51;;;;;;;8.90;8.20;;;14.60;99.90;;;;;;5032276;28;20214;-76
2021/07/09 06:04:17;;;;;;;9.03;8.23;;;14.60;99.90;;;;;;5032434;28;20210;-77
2021/07/09 06:06:43;;;;;;;10.13;7.97;;;14.60;99.90;;;;;;5030183;28;20185;-76
2021/07/09 06:09:09;;;;;;;8.93;8.13;;;14.60;99.90;;;;;;5027235;28;20264;-76
2021/07/09 06:11:35;;;;;;;7.63;6.90;;;14.60;99.90;;;;;;5030472;28;20261;-76
2021/07/09 06:14:02;;;;;;;7.30;6.70;;;14.70;99.90;;;;;;5030275;28;20186;-77
2021/07/09 06:16:27;;;;;;;8.20;7.03;;;14.70;99.90;;;;;;5030398;28;20185;-76
2021/07/09 06:18:53;;;;;;;7.30;6.60;;;14.70;99.90;;;;;;5031378;28;20579;-76
2021/07/09 06:21:19;;;;;;;7.63;6.80;;;14.80;99.90;;;;;;5030226;28;20526;-77
2021/07/09 06:23:45;;;;;;;7.13;6.63;;;14.70;99.90;;;;;;5029248;28;20189;-76
2021/07/09 06:26:10;;;;;;;7.57;6.97;;;14.80;99.90;;;;;;5027207;28;20186;-77
2021/07/09 06:28:36;;;;;;;7.57;6.87;;;14.80;99.90;;;;;;5030455;28;20214;-77
2021/07/09 06:31:02;;;;;;;7.93;6.53;;;14.90;99.90;;;;;;5029870;28;20205;-76
2021/07/09 06:33:28;;;;;;;7.47;6.57;;;14.90;99.90;;;;;;5029669;28;20186;-77
2021/07/09 06:35:54;;;;;;;7.13;6.53;;;15.00;99.90;;;;;;5026001;28;20189;-75
2021/07/09 06:38:20;;;;;;;16.27;6.37;;;15.00;99.90;;;;;;5029764;28;20217;-76
2021/07/09 06:40:45;;;;;;;7.17;6.57;;;15.10;99.90;;;;;;5078698;22;20218;-77
2021/07/09 06:43:12;;;;;;;7.13;6.43;;;15.20;99.90;;;;;;5060189;28;20587;-77
2021/07/09 06:45:39;;;;;;;7.70;6.97;;;15.30;99.90;;;;;;5061866;28;20177;-77
2021/07/09 06:48:06;;;;;;;8.13;5.83;;;15.40;99.90;;;;;;5064862;28;20691;-77
2021/07/09 06:50:33;;;;;;;13.50;6.30;;;15.40;99.90;;;;;;5056502;28;20231;-78
2021/07/09 06:52:58;;;;;;;8.93;6.00;;;15.50;99.90;;;;;;5054073;28;20267;-78
2021/07/09 06:55:24;;;;;;;5.57;5.07;;;15.40;99.90;;;;;;5061290;28;20193;-78
2021/07/09 06:57:50;;;;;;;6.13;5.57;;;15.40;99.90;;;;;;5039541;28;20183;-78
2021/07/09 07:00:18;;;;;;;6.53;5.67;;;15.50;99.90;;;;;;5055499;28;20220;-77
2021/07/09 07:02:48;;;;;;;6.30;5.70;;;15.50;99.90;;;;;;5058803;28;20261;-76
2021/07/09 07:05:16;;;;;;;5.70;5.20;;;15.60;99.90;;;;;;5059377;28;20713;-77
2021/07/09 07:07:42;;;;;;;6.17;4.93;;;15.60;99.90;;;;;;5038696;28;20181;-78
2021/07/09 07:10:09;;;;;;;5.17;4.57;;;15.70;99.90;;;;;;5055280;28;20201;-77
2021/07/09 07:12:36;;;;;;;5.33;4.30;;;15.80;99.90;;;;;;5043300;28;20176;-77
2021/07/09 07:15:04;;;;;;;4.30;3.90;;;15.80;99.90;;;;;;5062249;28;20669;-78
2021/07/09 07:17:31;;;;;;;4.83;4.53;;;15.80;99.90;;;;;;5045088;28;20556;-76
2021/07/09 07:19:57;;;;;;;5.43;4.90;;;16.00;99.90;;;;;;5053589;28;20729;-78
2021/07/09 07:22:23;;;;;;;4.33;4.00;;;16.10;99.90;;;;;;5067093;28;20183;-77
2021/07/09 07:24:50;;;;;;;4.90;4.17;;;16.30;99.90;;;;;;5056441;28;20704;-78
2021/07/09 07:27:16;;;;;;;3.80;3.50;;;16.40;99.90;;;;;;5060571;28;20216;-77
2021/07/09 07:29:42;;;;;;;4.60;4.20;;;16.40;99.90;;;;;;5040180;28;20208;-77
2021/07/09 07:32:07;;;;;;;5.63;4.70;;;16.40;99.90;;;;;;5040972;28;20187;-77
2021/07/09 07:34:33;;;;;;;5.20;4.10;;;16.50;99.90;;;;;;5048849;28;20242;-78
2021/07/09 07:36:59;;;;;;;5.23;4.17;;;16.60;99.90;;;;;;5061308;28;20186;-78
2021/07/09 07:39:24;;;;;;;4.30;3.90;;;16.60;99.90;;;;;;5056189;28;20239;-77
2021/07/09 07:41:50;;;;;;;5.07;3.93;;;16.60;99.90;;;;;;5043931;28;20327;-77
2021/07/09 07:44:16;;;;;;;5.90;3.77;;;16.60;99.90;;;;;;5058855;28;20179;-77
2021/07/09 07:46:41;;;;;;;4.13;3.43;;;16.50;99.90;;;;;;5063147;28;20185;-78
2021/07/09 07:49:07;;;;;;;4.07;3.77;;;16.60;99.90;;;;;;5060191;28;20258;-77
2021/07/09 07:51:32;;;;;;;5.43;3.83;;;16.60;99.90;;;;;;5043298;28;20207;-77
2021/07/09 07:53:58;;;;;;;6.47;3.63;;;16.60;99.90;;;;;;5042269;28;20539;-77
2021/07/09 07:56:24;;;;;;;5.83;3.13;;;16.80;99.90;;;;;;5041361;28;20193;-77
2021/07/09 07:58:52;;;;;;;3.43;3.23;;;16.80;99.90;;;;;;5044399;28;20202;-77
2021/07/09 08:01:18;;;;;;;4.47;3.27;;;16.80;99.90;;;;;;5055786;28;20694;-77
2021/07/09 08:03:44;;;;;;;3.23;2.90;;;16.90;99.90;;;;;;5063926;28;20185;-78
2021/07/09 08:06:10;;;;;;;2.67;2.47;;;17.00;99.90;;;;;;5048630;28;20185;-77
2021/07/09 08:08:37;;;;;;;3.23;2.93;;;17.10;99.90;;;;;;5053048;28;20187;-78
2021/07/09 08:11:03;;;;;;;3.27;2.80;;;17.10;99.90;;;;;;5061906;28;20206;-78
2021/07/09 08:13:29;;;;;;;4.50;3.10;;;17.20;99.90;;;;;;5039603;28;20186;-77
2021/07/09 08:15:55;;;;;;;2.87;2.57;;;17.40;99.90;;;;;;5057217;28;20188;-76
2021/07/09 08:18:21;;;;;;;4.63;2.93;;;17.40;99.90;;;;;;5056674;28;20188;-78
2021/07/09 08:20:46;;;;;;;4.60;3.53;;;17.40;99.90;;;;;;5054291;28;20286;-78
2021/07/09 08:23:12;;;;;;;4.30;3.17;;;17.40;99.90;;;;;;5044391;28;20328;-77
2021/07/09 08:25:38;;;;;;;3.50;3.20;;;17.40;99.90;;;;;;5060828;28;20257;-76
2021/07/09 08:28:04;;;;;;;4.33;2.97;;;17.40;99.90;;;;;;5057684;28;20190;-78
2021/07/09 08:30:29;;;;;;;3.97;2.90;;;17.40;99.90;;;;;;5058250;28;20271;-78
2021/07/09 08:32:55;;;;;;;2.90;2.70;;;17.40;99.90;;;;;;5044806;28;20657;-77
2021/07/09 08:35:20;;;;;;;6.63;3.10;;;17.60;99.90;;;;;;5055434;28;20652;-77
2021/07/09 08:37:46;;;;;;;5.40;3.00;;;17.80;99.90;;;;;;5044321;28;20272;-77
2021/07/09 08:40:13;;;;;;;2.90;2.70;;;17.80;99.90;;;;;;5056776;28;20219;-78
2021/07/09 08:42:39;;;;;;;3.50;3.20;;;17.90;99.90;;;;;;5038985;28;20171;-77
2021/07/09 08:45:09;;;;;;;3.27;3.03;;;17.90;99.90;;;;;;5055548;28;20175;-78
2021/07/09 08:47:36;;;;;;;2.67;2.47;;;18.10;99.90;;;;;;5055778;28;20655;-78
2021/07/09 08:50:04;;;;;;;4.67;2.50;;;18.30;99.90;;;;;;5037927;28;20861;-78
2021/07/09 08:52:29;;;;;;;5.60;2.70;;;18.50;99.90;;;;;;5058679;28;20195;-75
2021/07/09 08:54:55;;;;;;;2.90;2.70;;;18.60;99.90;;;;;;5038337;28;20180;-78
2021/07/09 08:57:21;;;;;;;2.20;2.00;;;18.60;99.90;;;;;;5056690;28;20237;-78
2021/07/09 08:59:46;;;;;;;4.43;2.60;;;18.70;99.90;;;;;;5049031;28;20240;-78
2021/07/09 09:02:12;;;;;;;2.80;2.50;;;18.60;99.90;;;;;;5056930;28;20291;-78
2021/07/09 09:04:38;;;;;;;2.60;2.40;;;18.60;99.90;;;;;;5059847;28;20176;-78
2021/07/09 09:07:09;;;;;;;3.27;2.40;;;18.60;99.90;;;;;;5062404;28;20521;-78
2021/07/09 09:09:41;;;;;;;4.57;2.50;;;18.50;99.90;;;;;;5055674;28;20188;-78
2021/07/09 09:12:11;;;;;;;3.43;2.70;;;18.30;99.90;;;;;;5064553;28;20181;-78
2021/07/09 09:14:44;;;;;;;4.60;2.70;;;18.10;99.90;;;;;;5036030;28;20275;-78
2021/07/09 09:17:37;;;;;;;4.10;2.73;;;18.20;99.90;;;;;;5063294;28;20658;-77
2021/07/09 09:20:17;;;;;;;3.30;3.10;;;18.50;99.90;;;;;;5057345;28;20299;-76
2021/07/09 09:22:49;;;;;;;3.00;2.80;;;18.60;99.90;;;;;;5058998;28;20702;-77
2021/07/09 09:25:20;;;;;;;3.00;2.80;;;18.70;99.90;;;;;;5064120;28;20217;-77
2021/07/09 09:28:12;;;;;;;7.10;2.60;;;18.80;99.90;;;;;;5043473;28;20234;-77
2021/07/09 09:30:40;;;;;;;3.80;2.57;;;18.80;99.90;;;;;;5051340;28;20209;-78
2021/07/09 09:33:12;;;;;;;5.70;2.53;;;18.90;99.90;;;;;;5038821;28;20187;-77
2021/07/09 09:35:48;;;;;;;2.40;2.20;;;18.70;99.90;;;;;;5053699;28;20270;-77
2021/07/09 09:38:17;;;;;;;3.30;2.50;;;18.60;99.90;;;;;;5053446;28;20183;-78
2021/07/09 09:40:45;;;;;;;3.63;2.63;;;18.70;99.90;;;;;;5055707;28;20254;-80
2021/07/09 09:43:13;;;;;;;2.70;2.50;;;18.80;99.90;;;;;;5065346;28;20266;-77
2021/07/09 09:45:40;;;;;;;2.90;2.67;;;18.80;99.90;;;;;;5036273;28;20176;-78
2021/07/09 09:48:07;;;;;;;3.50;3.03;;;18.50;99.90;;;;;;5054623;28;20181;-77
2021/07/09 09:50:48;;;;;;;3.33;3.00;;;18.40;99.90;;;;;;5057304;28;20219;-77
2021/07/09 09:53:14;;;;;;;4.17;3.47;;;18.40;99.90;;;;;;5052779;28;20179;-77
2021/07/09 09:55:42;;;;;;;3.87;2.87;;;18.50;99.90;;;;;;5055914;28;20184;-77
2021/07/09 09:58:08;;;;;;;3.57;2.77;;;18.50;99.90;;;;;;5055095;28;20176;-77
2021/07/09 10:00:34;;;;;;;3.23;2.53;;;18.60;99.90;;;;;;5059593;28;20212;-77
2021/07/09 10:03:04;;;;;;;3.30;2.50;;;18.60;99.90;;;;;;5062629;28;20536;-77
2021/07/09 10:05:36;;;;;;;2.93;2.73;;;18.70;99.90;;;;;;5060841;28;20185;-77
2021/07/09 10:08:03;;;;;;;2.97;2.77;;;18.70;99.90;;;;;;5035983;28;20182;-77
2021/07/09 10:10:31;;;;;;;4.27;2.40;;;18.60;99.90;;;;;;5046610;28;20453;-77
2021/07/09 10:12:57;;;;;;;5.47;2.87;;;18.70;99.90;;;;;;5054083;28;20300;-77
2021/07/09 10:15:26;;;;;;;5.87;2.73;;;18.60;99.90;;;;;;5053741;28;20187;-77
2021/07/09 10:17:54;;;;;;;3.50;2.90;;;18.60;99.90;;;;;;5035917;28;20188;-77
2021/07/09 10:20:21;;;;;;;5.20;3.20;;;18.60;99.90;;;;;;5053405;28;20218;-77
2021/07/09 10:22:47;;;;;;;3.17;2.80;;;18.60;99.90;;;;;;5055008;28;20657;-77
2021/07/09 10:25:16;;;;;;;3.57;2.90;;;18.50;99.90;;;;;;5057209;28;20188;-76
2021/07/09 10:27:43;;;;;;;3.10;2.80;;;18.50;99.90;;;;;;5034402;28;20653;-76
2021/07/09 10:30:09;;;;;;;4.07;3.17;;;18.60;99.90;;;;;;5053476;28;20230;-77
2021/07/09 10:32:35;;;;;;;2.40;2.20;;;18.90;99.90;;;;;;5032482;28;20212;-76
2021/07/09 10:35:05;;;;;;;2.83;2.37;;;19.20;99.90;;;;;;5039976;28;20275;-76
2021/07/09 10:37:32;;;;;;;3.37;2.80;;;;;;;;;;5059517;28;20646;-77
2021/07/09 10:40:23;;;;;;;3.10;2.50;;;19.70;99.90;;;;;;5052543;28;20239;-76
2021/07/09 10:42:49;;;;;;;5.40;2.60;;;19.70;99.90;;;;;;5049251;28;20177;-77
2021/07/09 10:45:18;;;;;;;4.83;2.77;;;19.70;99.90;;;;;;5050292;28;20170;-76
2021/07/09 10:47:51;;;;;;;3.73;2.40;;;19.80;99.90;;;;;;5042726;28;20183;-77
2021/07/09 10:50:44;;;;;;;3.57;2.40;;;19.70;99.90;;;;;;5052336;28;20209;-76
2021/07/09 10:53:10;;;;;;;4.37;2.73;;;19.60;99.90;;;;;;5057908;28;20180;-77
2021/07/09 10:55:44;;;;;;;2.67;2.20;;;19.40;99.90;;;;;;5058897;28;20292;-76
2021/07/09 10:58:10;;;;;;;5.30;2.40;;;19.00;99.90;;;;;;5032560;28;20196;-77
2021/07/09 11:00:55;;;;;;;3.93;2.70;;;18.90;99.90;;;;;;5059660;28;20207;-76
2021/07/09 11:03:39;;;;;;;2.70;2.40;;;18.90;99.90;;;;;;5066952;28;20174;-77
2021/07/09 11:06:38;;;;;;;3.80;2.30;;;18.90;99.90;;;;;;5050099;28;20224;-77
2021/07/09 11:09:11;;;;;;;2.50;2.30;;;18.80;99.90;;;;;;5056087;28;20259;-78
2021/07/09 11:11:51;;;;;;;4.77;2.63;;;18.90;99.90;;;;;;5053287;28;20218;-77
2021/07/09 11:14:33;;;;;;;2.97;2.60;;;19.00;99.90;;;;;;5042278;28;20232;-76
2021/07/09 11:17:18;;;;;;;3.30;2.10;;;19.00;99.90;;;;;;5059981;28;20230;-77
2021/07/09 11:19:44;;;;;;;2.23;1.73;;;19.10;99.90;;;;;;5053865;28;20578;-75
2021/07/09 11:22:12;;;;;;;2.17;1.97;;;19.00;99.90;;;;;;5052410;28;20261;-77
2021/07/09 11:24:56;;;;;;;3.07;1.97;;;19.10;99.90;;;;;;5048049;28;20394;-76
2021/07/09 11:27:25;;;;;;;1.90;1.80;;;19.20;99.90;;;;;;5051172;28;20219;-76
2021/07/09 11:29:56;;;;;;;2.10;2.00;;;19.50;99.90;;;;;;5052605;28;20679;-77
2021/07/09 11:32:22;;;;;;;1.73;1.60;;;19.70;99.90;;;;;;5050930;28;20679;-77
2021/07/09 11:34:49;;;;;;;2.60;2.00;;;19.90;99.90;;;;;;5056907;28;20234;-77
2021/07/09 11:37:23;;;;;;;1.87;1.60;;;19.90;99.90;;;;;;5061243;28;20171;-77
2021/07/09 11:39:51;;;;;;;1.90;1.67;;;20.00;99.90;;;;;;5055888;28;20205;-77
2021/07/09 11:42:18;;;;;;;2.20;1.70;;;20.20;99.90;;;;;;5041187;28;20208;-77
2021/07/09 11:44:46;;;;;;;1.70;1.60;;;20.20;99.90;;;;;;5055252;28;20239;-76
2021/07/09 11:47:15;;;;;;;3.43;1.93;;;20.20;99.90;;;;;;5055005;28;20178;-77
2021/07/09 11:49:45;;;;;;;1.73;1.60;;;20.20;99.90;;;;;;5053056;28;20202;-77
2021/07/09 11:52:12;;;;;;;2.10;1.87;;;20.40;99.90;;;;;;5057575;28;20188;-77
2021/07/09 11:54:39;;;;;;;2.97;2.13;;;20.60;99.90;;;;;;5036436;28;20345;-78
2021/07/09 11:57:10;;;;;;;2.43;1.50;;;20.80;99.90;;;;;;5061995;28;20188;-77
2021/07/09 11:59:40;;;;;;;2.23;1.57;;;21.00;99.90;;;;;;5054505;28;20194;-77
2021/07/09 12:02:13;;;;;;;2.63;1.80;;;21.10;99.90;;;;;;5063615;28;20170;-77
2021/07/09 12:04:41;;;;;;;2.13;1.80;;;21.10;99.90;;;;;;5053321;28;20268;-76
2021/07/09 12:07:24;;;;;;;2.27;1.77;;;21.30;99.90;;;;;;5069270;28;20678;-76
2021/07/09 12:10:15;;;;;;;2.53;1.87;;;21.40;99.90;;;;;;5058335;28;20194;-77
2021/07/09 12:12:43;;;;;;;1.80;1.70;;;21.50;99.90;;;;;;5058702;28;20197;-76
2021/07/09 12:15:24;;;;;;;1.83;1.60;;;21.60;99.90;;;;;;5057115;28;20202;-76
2021/07/09 12:18:10;;;;;;;1.83;1.60;;;21.90;99.90;;;;;;5068037;28;20194;-77
2021/07/09 12:20:40;;;;;;;2.53;1.70;;;22.00;99.90;;;;;;5057725;28;20710;-77
2021/07/09 12:23:14;;;;;;;4.13;1.73;;;22.00;99.90;;;;;;5056682;28;20674;-76
2021/07/09 12:25:49;;;;;;;1.87;1.53;;;21.90;99.90;;;;;;5061000;28;20177;-76
2021/07/09 12:28:20;;;;;;;1.77;1.43;;;22.00;99.90;;;;;;5061500;28;20181;-76
2021/07/09 12:30:49;;;;;;;1.73;1.57;;;22.20;99.90;;;;;;5062204;28;20564;-77
2021/07/09 12:33:18;;;;;;;1.63;1.50;;;22.30;99.90;;;;;;5066457;28;20180;-76
2021/07/09 12:35:44;;;;;;;1.77;1.67;;;22.30;99.90;;;;;;5060247;28;20212;-77
2021/07/09 12:38:12;;;;;;;1.80;1.50;;;22.40;99.90;;;;;;5060335;28;20214;-76
2021/07/09 12:40:45;;;;;;;1.50;1.40;;;22.40;99.90;;;;;;5084784;22;20216;-74
2021/07/09 12:43:18;;;;;;;1.83;1.67;;;22.50;99.90;;;;;;5089436;28;20195;-75
2021/07/09 12:45:53;;;;;;;2.80;1.30;;;22.70;99.90;;;;;;5085109;28;20174;-75
2021/07/09 12:48:29;;;;;;;2.47;1.80;;;22.60;99.90;;;;;;5092522;28;20209;-75
2021/07/09 12:50:55;;;;;;;2.30;1.50;;;22.50;99.90;;;;;;5076477;28;20714;-75